createdAt,value
2018-12-24T00:00:27.913Z,79.22
2018-12-24T00:05:32.128Z,80.27
2018-12-24T00:10:36.435Z,81.11
2018-12-24T00:15:40.745Z,81.47
2018-12-24T00:20:44.897Z,81.09
2018-12-24T00:25:49.190Z,80.37
2018-12-24T00:30:53.624Z,80.44
2018-12-24T00:35:57.813Z,79.68
2018-12-24T00:41:02.010Z,80.25
2018-12-24T00:46:06.344Z,79.92
2018-12-24T00:51:10.533Z,79.39
2018-12-24T00:56:14.976Z,79.68
2018-12-24T01:01:19.206Z,79.18
2018-12-24T01:06:23.461Z,79.83
2018-12-24T01:11:27.638Z,80.58
2018-12-24T01:16:31.876Z,80.88
2018-12-24T01:21:36.032Z,81.71
2018-12-24T01:26:40.207Z,81.71
2018-12-24T01:31:44.408Z,81.67
2018-12-24T01:36:48.547Z,83.39
2018-12-24T01:41:52.730Z,83.62
2018-12-24T01:46:56.866Z,84.26
2018-12-24T01:52:01.125Z,83.68
2018-12-24T01:57:05.363Z,84.22
2018-12-24T02:02:09.556Z,83.93
2018-12-24T02:07:13.731Z,84.01
2018-12-24T02:12:17.877Z,84.70
2018-12-24T02:17:22.030Z,84.67
2018-12-24T02:22:26.311Z,83.91
2018-12-24T02:27:30.497Z,83.51
2018-12-24T02:32:34.678Z,84.13
2018-12-24T02:37:38.832Z,84.00
2018-12-24T02:42:52.047Z,84.00
2018-12-24T02:47:48.852Z,85.01
2018-12-24T02:52:53.012Z,85.28
2018-12-24T02:57:57.145Z,85.37
2018-12-24T03:03:01.388Z,85.63
2018-12-24T03:08:05.575Z,85.31
2018-12-24T03:13:09.763Z,85.21
2018-12-24T03:18:13.913Z,85.15
2018-12-24T03:23:18.050Z,85.05
2018-12-24T03:28:22.212Z,84.29
2018-12-24T03:33:26.357Z,84.19
2018-12-24T03:38:30.508Z,83.72
2018-12-24T03:43:34.650Z,82.91
2018-12-24T03:48:38.919Z,82.93
2018-12-24T03:53:43.156Z,82.17
2018-12-24T03:58:47.324Z,81.84
2018-12-24T04:03:51.493Z,82.18
2018-12-24T04:08:55.709Z,81.97
2018-12-24T04:13:59.880Z,82.60
2018-12-24T04:19:04.086Z,83.50
2018-12-24T04:24:08.265Z,84.28
2018-12-24T04:29:12.425Z,84.98
2018-12-24T04:34:16.651Z,84.59
2018-12-24T04:39:20.826Z,84.57
2018-12-24T04:44:25.018Z,84.23
2018-12-24T04:49:29.215Z,84.40
2018-12-24T04:54:33.358Z,84.03
2018-12-24T04:59:37.494Z,83.50
2018-12-24T05:04:41.663Z,83.39
2018-12-24T05:09:45.836Z,83.15
2018-12-24T05:14:50.013Z,82.14
2018-12-24T05:19:54.165Z,81.96
2018-12-24T05:24:58.488Z,80.54
2018-12-24T05:30:02.651Z,79.25
2018-12-24T05:35:06.857Z,80.51
2018-12-24T05:40:10.983Z,80.32
2018-12-24T05:45:15.182Z,79.02
2018-12-24T05:50:19.484Z,79.31
2018-12-24T05:55:23.680Z,78.70
2018-12-24T06:00:27.836Z,78.65
2018-12-24T06:05:32.006Z,78.65
2018-12-24T06:10:36.199Z,77.75
2018-12-24T06:15:40.328Z,77.90
2018-12-24T06:20:44.517Z,77.62
2018-12-24T06:25:48.713Z,77.03
2018-12-24T06:30:52.881Z,77.50
2018-12-24T06:35:57.105Z,77.91
2018-12-24T06:41:01.260Z,77.74
2018-12-24T06:46:05.491Z,77.51
2018-12-24T06:51:09.643Z,77.33
2018-12-24T06:56:13.832Z,76.85
2018-12-24T07:01:17.990Z,76.73
2018-12-24T07:06:22.205Z,76.20
2018-12-24T07:11:26.367Z,76.30
2018-12-24T07:16:30.566Z,76.25
2018-12-24T07:21:34.741Z,75.74
2018-12-24T07:26:38.897Z,76.21
2018-12-24T07:31:43.064Z,75.52
2018-12-24T07:36:47.361Z,76.15
2018-12-24T07:41:51.501Z,75.96
2018-12-24T07:46:55.651Z,75.55
2018-12-24T07:51:59.828Z,74.95
2018-12-24T07:57:04.012Z,74.48
2018-12-24T08:02:08.161Z,74.28
2018-12-24T08:07:12.332Z,73.93
2018-12-24T08:12:16.469Z,74.70
2018-12-24T08:17:20.765Z,74.44
2018-12-24T08:22:25.295Z,74.57
2018-12-24T08:27:29.475Z,75.29
2018-12-24T08:32:33.648Z,75.95
2018-12-24T08:37:37.824Z,75.26
2018-12-24T08:42:41.976Z,75.74
2018-12-24T08:47:46.106Z,75.49
2018-12-24T08:52:50.237Z,76.75
2018-12-24T08:57:54.396Z,77.05
2018-12-24T09:02:58.561Z,76.57
2018-12-24T09:08:02.738Z,75.76
2018-12-24T09:13:06.887Z,76.11
2018-12-24T09:18:11.054Z,75.33
2018-12-24T09:23:15.198Z,74.94
2018-12-24T09:28:19.335Z,73.76
2018-12-24T09:33:23.494Z,73.37
2018-12-24T09:38:27.665Z,72.13
2018-12-24T09:43:31.803Z,71.01
2018-12-24T09:49:02.477Z,70.64
2018-12-24T09:54:04.475Z,70.20
2018-12-24T09:59:08.741Z,70.11
2018-12-24T10:04:30.109Z,71.93
2018-12-24T10:09:34.359Z,71.11
2018-12-24T10:14:38.597Z,71.02
2018-12-24T10:19:42.759Z,70.71
2018-12-24T10:24:46.955Z,70.46
2018-12-24T10:29:51.138Z,69.05
2018-12-24T10:34:55.340Z,72.28
2018-12-24T10:40:05.432Z,72.92
2018-12-24T10:45:16.309Z,72.24
2018-12-24T10:50:15.634Z,71.06
2018-12-24T10:55:19.795Z,69.06
2018-12-24T11:00:23.966Z,69.40
2018-12-24T11:05:28.170Z,69.78
2018-12-24T11:10:32.427Z,71.22
2018-12-24T11:15:36.686Z,71.34
2018-12-24T11:20:40.865Z,70.51
2018-12-24T11:25:45.026Z,70.70
2018-12-24T11:30:49.220Z,71.22
2018-12-24T11:35:53.615Z,70.32
2018-12-24T11:40:57.878Z,71.14
2018-12-24T11:46:02.089Z,70.79
2018-12-24T11:51:06.250Z,71.64
2018-12-24T11:56:10.417Z,71.31
2018-12-24T12:01:14.618Z,72.63
2018-12-24T12:06:19.822Z,70.27
2018-12-24T12:11:24.272Z,70.42
2018-12-24T12:16:28.465Z,68.40
2018-12-24T12:21:32.685Z,67.40
2018-12-24T12:26:36.931Z,66.21
2018-12-24T12:31:41.090Z,66.73
2018-12-24T12:36:45.224Z,65.61
2018-12-24T12:41:49.641Z,66.04
2018-12-24T12:46:57.339Z,66.70
2018-12-24T12:52:02.070Z,65.94
2018-12-24T12:57:06.217Z,68.29
2018-12-24T13:07:29.048Z,64.75
2018-12-24T13:12:33.224Z,64.74
2018-12-24T13:50:43.096Z,62.94
2018-12-24T13:56:27.652Z,63.37
2018-12-24T14:01:31.416Z,63.06
2018-12-24T14:06:35.213Z,63.38
2018-12-24T14:11:39.021Z,61.87
2018-12-24T14:16:42.848Z,63.10
2018-12-24T14:21:46.591Z,62.54
2018-12-24T14:26:50.310Z,63.15
2018-12-24T14:31:54.037Z,63.84
2018-12-24T14:36:57.740Z,63.87
2018-12-24T14:42:01.464Z,63.25
2018-12-24T14:47:05.205Z,63.15
2018-12-24T14:52:08.915Z,64.07
2018-12-24T14:57:12.630Z,63.50
2018-12-24T15:02:16.359Z,64.19
2018-12-24T15:07:20.078Z,63.46
2018-12-24T15:12:23.831Z,64.29
2018-12-24T15:17:27.554Z,63.60
2018-12-24T15:22:31.296Z,65.08
2018-12-24T15:27:35.012Z,65.80
2018-12-24T15:32:38.855Z,63.19
2018-12-24T15:37:42.565Z,63.48
2018-12-24T15:42:46.313Z,65.39
2018-12-24T15:47:50.029Z,65.08
2018-12-24T15:52:53.748Z,67.94
2018-12-24T15:57:57.488Z,67.10
2018-12-24T16:03:01.228Z,67.05
2018-12-24T16:08:04.956Z,67.61
2018-12-24T16:13:08.676Z,68.37
2018-12-24T16:18:12.412Z,68.10
2018-12-24T16:23:16.143Z,68.71
2018-12-24T16:28:19.867Z,68.32
2018-12-24T16:33:23.613Z,69.86
2018-12-24T16:38:30.399Z,69.16
2018-12-24T16:43:34.164Z,67.46
2018-12-24T16:48:37.928Z,68.29
2018-12-24T16:53:41.671Z,66.38
2018-12-24T16:58:45.460Z,65.93
2018-12-24T17:03:49.183Z,66.16
2018-12-24T17:08:52.914Z,66.08
2018-12-24T17:13:56.646Z,66.39
2018-12-24T17:19:00.378Z,65.44
2018-12-24T17:24:04.104Z,66.66
2018-12-24T17:29:07.879Z,64.70
2018-12-24T17:34:11.710Z,65.48
2018-12-24T17:39:15.542Z,64.09
2018-12-24T17:44:19.314Z,64.96
2018-12-24T17:49:23.050Z,64.69
2018-12-24T17:54:26.861Z,65.00
2018-12-24T17:59:30.656Z,65.71
2018-12-24T18:04:34.382Z,65.78
2018-12-24T18:09:38.101Z,66.21
2018-12-24T18:14:41.822Z,66.88
2018-12-24T18:19:45.587Z,67.17
2018-12-24T18:24:49.310Z,67.33
2018-12-24T18:29:53.020Z,67.61
2018-12-24T18:34:56.724Z,68.52
2018-12-24T18:40:00.438Z,67.87
2018-12-24T18:45:04.287Z,67.82
2018-12-24T18:50:08.393Z,68.89
2018-12-24T18:55:12.111Z,68.44
2018-12-24T19:00:16.057Z,69.33
2018-12-24T19:05:19.840Z,68.57
2018-12-24T19:10:23.679Z,68.79
2018-12-24T19:15:27.397Z,69.59
2018-12-24T19:20:31.155Z,69.63
2018-12-24T19:25:34.949Z,69.29
2018-12-24T19:30:38.669Z,69.56
2018-12-24T19:35:42.486Z,69.98
2018-12-24T19:40:46.237Z,69.75
2018-12-24T19:45:50.088Z,70.79
2018-12-24T19:50:53.844Z,71.37
2018-12-24T19:55:57.715Z,71.49
2018-12-24T20:01:01.441Z,71.79
2018-12-24T20:06:05.196Z,70.79
2018-12-24T20:11:08.926Z,71.70
2018-12-24T20:16:12.643Z,70.82
2018-12-24T20:21:16.397Z,71.34
2018-12-24T20:26:20.137Z,71.00
2018-12-24T20:31:23.945Z,72.51
2018-12-24T20:36:27.658Z,73.65
2018-12-24T20:41:31.401Z,73.79
2018-12-24T20:46:35.193Z,73.15
2018-12-24T20:51:38.945Z,72.42
2018-12-24T20:56:42.719Z,72.39
2018-12-24T21:01:46.486Z,73.33
2018-12-24T21:06:50.303Z,73.10
2018-12-24T21:11:54.141Z,73.49
2018-12-24T21:16:57.967Z,73.31
2018-12-24T21:22:01.800Z,73.85
2018-12-24T21:27:05.674Z,74.04
2018-12-24T21:32:09.491Z,73.56
2018-12-24T21:37:13.323Z,72.98
2018-12-24T21:42:17.160Z,73.06
2018-12-24T21:47:20.941Z,73.65
2018-12-24T21:52:24.843Z,74.02
2018-12-24T21:57:28.705Z,74.50
2018-12-24T22:02:32.490Z,74.36
2018-12-24T22:07:36.343Z,74.96
2018-12-24T22:12:40.151Z,74.88
2018-12-24T22:17:43.904Z,74.79
2018-12-24T22:22:47.754Z,74.76
2018-12-24T22:27:51.513Z,75.54
2018-12-24T22:32:55.335Z,75.51
2018-12-24T22:37:59.105Z,74.78
2018-12-24T22:43:02.920Z,75.38
2018-12-24T22:48:06.762Z,75.38
2018-12-24T22:53:10.592Z,75.70
2018-12-24T22:58:14.421Z,76.01
2018-12-24T23:03:18.239Z,75.54
2018-12-24T23:08:22.050Z,75.66
2018-12-24T23:13:25.767Z,75.61
2018-12-24T23:18:29.615Z,75.98
2018-12-24T23:23:33.506Z,75.88
2018-12-24T23:28:37.323Z,75.75
2018-12-24T23:33:41.139Z,76.18
2018-12-24T23:38:45.026Z,76.32
2018-12-24T23:43:48.873Z,75.90
2018-12-24T23:48:57.665Z,76.05
2018-12-24T23:53:58.316Z,76.11
2018-12-24T23:59:02.094Z,75.99
